createdAt,value
2022-09-03T00:01:55.161Z,95865.38
2022-09-03T00:04:30.056Z,95868.84
2022-09-03T00:07:02.925Z,95867.69
2022-09-03T00:09:42.572Z,95867.69
2022-09-03T00:12:29.159Z,95872.38
2022-09-03T00:15:02.125Z,95863.81
2022-09-03T00:17:44.433Z,95861.94
2022-09-03T00:20:20.189Z,95863.94
2022-09-03T00:22:50.875Z,95869.72
2022-09-03T00:25:34.780Z,95860.38
2022-09-03T00:28:05.275Z,95862.22
2022-09-03T00:30:33.774Z,95854.69
2022-09-03T00:33:09.513Z,95850.97
2022-09-03T00:35:41.848Z,95855.25
2022-09-03T00:38:09.420Z,95860.25
2022-09-03T00:41:00.306Z,95858.06
2022-09-03T00:43:51.236Z,95860.94
2022-09-03T00:46:33.916Z,95855.94
2022-09-03T00:49:28.444Z,95858.50
2022-09-03T00:52:01.881Z,95860.94
2022-09-03T00:54:43.067Z,95853.28
2022-09-03T00:57:33.110Z,95859.06
2022-09-03T01:00:05.813Z,95868.38
2022-09-03T01:02:59.999Z,95860.59
2022-09-03T01:05:38.405Z,95865.34
2022-09-03T01:08:23.913Z,95863.72
2022-09-03T01:10:56.517Z,95866.50
2022-09-03T01:13:33.997Z,95861.72
2022-09-03T01:16:29.183Z,95871.38
2022-09-03T01:19:25.492Z,95871.28
2022-09-03T01:22:05.295Z,95866.97
2022-09-03T01:24:43.678Z,95860.38
2022-09-03T01:27:47.559Z,95875.78
2022-09-03T01:30:18.541Z,95867.53
2022-09-03T01:32:49.425Z,95867.78
2022-09-03T01:35:35.129Z,95863.38
2022-09-03T01:38:20.794Z,95875.56
2022-09-03T01:41:30.225Z,95877.53
2022-09-03T01:44:22.321Z,95877.91
2022-09-03T01:46:58.622Z,95875.81
2022-09-03T01:49:38.630Z,95878.25
2022-09-03T01:52:15.381Z,95878.38
2022-09-03T01:55:13.934Z,95870.03
2022-09-03T01:57:56.208Z,95869.69
2022-09-03T02:00:23.088Z,95867.25
2022-09-03T02:02:51.829Z,95865.13
2022-09-03T02:05:23.772Z,95870.03
2022-09-03T02:08:02.951Z,95872.22
2022-09-03T02:10:45.424Z,95864.56
2022-09-03T02:13:21.269Z,95876.03
2022-09-03T02:15:50.275Z,95877.19
2022-09-03T02:18:21.067Z,95878.81
2022-09-03T02:20:49.255Z,95881.13
2022-09-03T02:23:16.881Z,95870.78
2022-09-03T02:25:47.793Z,95876.75
2022-09-03T02:28:17.142Z,95880.88
2022-09-03T02:30:45.287Z,95873.47
2022-09-03T02:33:12.262Z,95876.50
2022-09-03T02:35:40.742Z,95872.78
2022-09-03T02:38:25.773Z,95877.63
2022-09-03T02:40:54.498Z,95876.03
2022-09-03T02:43:31.171Z,95867.78
2022-09-03T02:46:04.206Z,95870.56
2022-09-03T02:48:31.030Z,95881.56
2022-09-03T02:50:57.604Z,95876.81
2022-09-03T02:53:24.118Z,95883.28
2022-09-03T02:55:50.726Z,95882.25
2022-09-03T02:58:17.444Z,95877.16
2022-09-03T03:00:44.836Z,95880.59
2022-09-03T03:03:11.364Z,95878.41
2022-09-03T03:05:47.098Z,95884.81
2022-09-03T03:08:15.398Z,95875.75
2022-09-03T03:10:45.094Z,95880.06
2022-09-03T03:13:12.211Z,95875.50
2022-09-03T03:15:38.968Z,95885.16
2022-09-03T03:18:06.046Z,95880.06
2022-09-03T03:20:33.020Z,95884.56
2022-09-03T03:23:02.558Z,95877.38
2022-09-03T03:25:29.113Z,95880.50
2022-09-03T03:27:57.086Z,95883.16
2022-09-03T03:30:24.354Z,95884.00
2022-09-03T03:32:53.555Z,95887.47
2022-09-03T03:35:20.261Z,95884.47
2022-09-03T03:37:46.830Z,95888.50
2022-09-03T03:40:15.072Z,95885.28
2022-09-03T03:42:42.414Z,95881.56
2022-09-03T03:45:13.082Z,95885.28
2022-09-03T03:47:39.585Z,95878.88
2022-09-03T03:50:06.541Z,95882.13
2022-09-03T03:52:33.126Z,95874.13
2022-09-03T03:54:59.685Z,95888.25
2022-09-03T03:57:26.449Z,95884.47
2022-09-03T03:59:52.971Z,95876.94
2022-09-03T04:02:19.615Z,95882.03
2022-09-03T04:04:46.209Z,95891.53
2022-09-03T04:07:12.754Z,95887.72
2022-09-03T04:09:39.289Z,95890.50
2022-09-03T04:12:08.611Z,95897.59
2022-09-03T04:14:35.448Z,95897.81
2022-09-03T04:17:03.223Z,95894.47
2022-09-03T04:19:30.325Z,95893.09
2022-09-03T04:21:56.882Z,95891.13
2022-09-03T04:24:23.957Z,95888.56
2022-09-03T04:26:50.699Z,95897.84
2022-09-03T04:29:18.389Z,95889.63
2022-09-03T04:32:04.979Z,95891.22
2022-09-03T04:34:31.559Z,95885.53
2022-09-03T04:36:59.164Z,95889.25
2022-09-03T04:39:26.246Z,95898.44
2022-09-03T04:41:52.889Z,95903.28
2022-09-03T04:44:19.471Z,95903.88
2022-09-03T04:46:47.949Z,95911.28
2022-09-03T04:49:15.141Z,95907.56
2022-09-03T04:51:42.159Z,95902.94
2022-09-03T04:54:10.292Z,95896.09
2022-09-03T04:56:40.231Z,95896.69
2022-09-03T04:59:09.625Z,95897.22
2022-09-03T05:01:38.584Z,95902.56
2022-09-03T05:04:06.771Z,95897.56
2022-09-03T05:06:34.473Z,95906.16
2022-09-03T05:09:01.349Z,95898.50
2022-09-03T05:11:29.300Z,95908.25
2022-09-03T05:13:58.446Z,95905.13
2022-09-03T05:16:25.594Z,95913.13
2022-09-03T05:18:54.144Z,95914.38
2022-09-03T05:21:21.371Z,95908.94
2022-09-03T05:23:50.782Z,95916.16
2022-09-03T05:26:26.033Z,95922.63
2022-09-03T05:28:59.043Z,95917.75
2022-09-03T05:31:28.343Z,95922.63
2022-09-03T05:33:58.629Z,95919.72
2022-09-03T05:36:28.531Z,95917.75
2022-09-03T05:38:55.998Z,95909.66
2022-09-03T05:41:23.579Z,95915.44
2022-09-03T05:43:53.499Z,95908.03
2022-09-03T05:46:20.102Z,95918.47
2022-09-03T05:48:46.707Z,95927.97
2022-09-03T05:51:16.579Z,95918.69
2022-09-03T05:53:46.045Z,95926.00
2022-09-03T05:56:18.121Z,95923.19
2022-09-03T05:58:52.836Z,95931.31
2022-09-03T06:01:23.718Z,95930.38
2022-09-03T06:03:56.115Z,95933.41
2022-09-03T06:06:25.627Z,95934.81
2022-09-03T06:08:58.216Z,95930.53
2022-09-03T06:11:29.761Z,95934.81
2022-09-03T06:13:57.635Z,95939.66
2022-09-03T06:16:31.464Z,95941.31
2022-09-03T06:18:59.922Z,95936.31
2022-09-03T06:21:27.134Z,95936.63
2022-09-03T06:24:00.066Z,95947.91
2022-09-03T06:26:31.025Z,95938.88
2022-09-03T06:28:58.075Z,95945.03
2022-09-03T06:31:25.537Z,95942.94
2022-09-03T06:33:54.755Z,95949.06
2022-09-03T06:36:22.991Z,95945.47
2022-09-03T06:38:53.131Z,95935.50
2022-09-03T06:41:25.060Z,95942.13
2022-09-03T06:44:03.492Z,95939.09
2022-09-03T06:46:35.447Z,95938.03
2022-09-03T06:49:02.762Z,95939.66
2022-09-03T06:51:32.058Z,95947.78
2022-09-03T06:54:10.541Z,95939.78
2022-09-03T06:56:40.627Z,95941.16
2022-09-03T06:59:15.277Z,95946.72
2022-09-03T07:01:45.450Z,95950.56
2022-09-03T07:04:13.796Z,95952.53
2022-09-03T07:06:42.614Z,95948.81
2022-09-03T07:09:10.093Z,95961.59
2022-09-03T07:11:37.291Z,95964.81
2022-09-03T07:14:05.272Z,95956.94
2022-09-03T07:16:37.090Z,95970.63
2022-09-03T07:19:05.319Z,95964.97
2022-09-03T07:21:34.470Z,95964.00
2022-09-03T07:24:00.963Z,95974.34
2022-09-03T07:26:30.547Z,95966.56
2022-09-03T07:28:57.674Z,95971.66
2022-09-03T07:31:27.183Z,95975.97
2022-09-03T07:33:55.751Z,95975.97
2022-09-03T07:36:23.945Z,95973.06
2022-09-03T07:38:51.290Z,95979.31
2022-09-03T07:41:28.493Z,95978.28
2022-09-03T07:43:55.739Z,95973.28
2022-09-03T07:46:27.414Z,95984.31
2022-09-03T07:48:58.853Z,95981.16
2022-09-03T07:51:28.434Z,95989.84
2022-09-03T07:54:00.688Z,95984.38
2022-09-03T07:56:28.137Z,95985.31
2022-09-03T07:58:57.459Z,95984.94
2022-09-03T08:01:25.593Z,95990.13
2022-09-03T08:03:54.221Z,95982.81
2022-09-03T08:06:22.990Z,95993.25
2022-09-03T08:08:54.295Z,95990.81
2022-09-03T08:11:22.052Z,95990.47
2022-09-03T08:13:54.811Z,95986.28
2022-09-03T08:16:21.386Z,95991.25
2022-09-03T08:18:47.968Z,95990.88
2022-09-03T08:21:17.411Z,95994.13
2022-09-03T08:23:46.011Z,95993.78
2022-09-03T08:26:13.795Z,95987.38
2022-09-03T08:28:40.739Z,95999.44
2022-09-03T08:31:19.692Z,95995.59
2022-09-03T08:33:51.390Z,95994.16
2022-09-03T08:36:22.872Z,96007.19
2022-09-03T08:38:50.452Z,96005.06
2022-09-03T08:41:20.872Z,96009.38
2022-09-03T08:44:14.613Z,96007.03
2022-09-03T08:46:51.502Z,96004.97
2022-09-03T08:49:41.739Z,95997.28
2022-09-03T08:52:22.046Z,95998.53
2022-09-03T08:54:51.625Z,95997.00
2022-09-03T08:57:20.943Z,96000.06
2022-09-03T08:59:52.018Z,95997.28
2022-09-03T09:02:31.300Z,95993.78
2022-09-03T09:05:17.439Z,95994.19
2022-09-03T09:07:48.728Z,95993.94
2022-09-03T09:10:36.724Z,95998.47
2022-09-03T09:13:16.367Z,95988.59
2022-09-03T09:16:04.085Z,95991.84
2022-09-03T09:18:33.834Z,95992.94
2022-09-03T09:21:09.454Z,95986.91
2022-09-03T09:23:48.304Z,95991.44
2022-09-03T09:26:21.525Z,95991.34
2022-09-03T09:29:02.182Z,95992.16
2022-09-03T09:31:31.085Z,96001.72
2022-09-03T09:34:05.772Z,95993.94
2022-09-03T09:36:47.065Z,96001.22
2022-09-03T09:39:16.075Z,96003.25
2022-09-03T09:41:44.666Z,96009.34
2022-09-03T09:44:20.414Z,96018.59
2022-09-03T09:46:50.285Z,96018.16
2022-09-03T09:49:35.894Z,96024.41
2022-09-03T09:52:08.837Z,96028.50
2022-09-03T09:54:35.508Z,96018.31
2022-09-03T09:57:05.034Z,96022.16
2022-09-03T09:59:33.596Z,96022.22
2022-09-03T10:02:09.772Z,96021.72
2022-09-03T10:04:38.871Z,96029.59
2022-09-03T10:07:19.693Z,96027.00
2022-09-03T10:09:46.620Z,96025.22
2022-09-03T10:12:28.502Z,96027.66
2022-09-03T10:15:28.035Z,96026.38
2022-09-03T10:18:39.129Z,96019.38
2022-09-03T10:21:18.225Z,96032.53
2022-09-03T10:23:56.119Z,96038.22
2022-09-03T10:26:30.717Z,96033.47
2022-09-03T10:29:05.834Z,96031.56
2022-09-03T10:32:13.692Z,96022.94
2022-09-03T10:34:59.537Z,96024.72
2022-09-03T10:37:44.336Z,96031.72
2022-09-03T10:40:34.977Z,96036.59
2022-09-03T10:43:33.218Z,96036.41
2022-09-03T10:46:14.008Z,96037.59
2022-09-03T10:48:43.306Z,96030.09
2022-09-03T10:51:34.156Z,96038.69
2022-09-03T10:54:29.044Z,96039.19
2022-09-03T10:57:19.966Z,96034.41
2022-09-03T11:00:10.452Z,96032.53
2022-09-03T11:03:01.493Z,96030.72
2022-09-03T11:06:03.052Z,96031.88
2022-09-03T11:09:04.467Z,96036.50
2022-09-03T11:12:21.552Z,96035.16
2022-09-03T11:15:03.816Z,96036.66
2022-09-03T11:17:38.244Z,96042.25
2022-09-03T11:20:17.041Z,96041.44
2022-09-03T11:22:46.162Z,96038.00
2022-09-03T11:25:14.921Z,96039.66
2022-09-03T11:27:41.496Z,96036.97
2022-09-03T11:30:14.787Z,96031.88
2022-09-03T11:32:55.918Z,96033.72
2022-09-03T11:35:31.602Z,96031.72
2022-09-03T11:38:04.611Z,96039.84
2022-09-03T11:40:56.902Z,96023.84
2022-09-03T11:43:34.266Z,96024.91
2022-09-03T11:46:14.840Z,96022.06
2022-09-03T11:48:47.423Z,96022.13
2022-09-03T11:51:33.064Z,96024.06
2022-09-03T11:54:01.317Z,96027.03
2022-09-03T11:56:29.388Z,96027.28
2022-09-03T11:59:14.615Z,96028.66
2022-09-03T12:01:53.323Z,96032.41
2022-09-03T12:04:34.679Z,96033.22
2022-09-03T12:07:35.852Z,96030.28
2022-09-03T12:10:11.228Z,96039.38
2022-09-03T12:12:46.286Z,96033.47
2022-09-03T12:15:40.179Z,96039.16
2022-09-03T12:18:22.525Z,96038.31
2022-09-03T12:21:00.955Z,96031.91
2022-09-03T12:23:30.806Z,96022.00
2022-09-03T12:26:08.637Z,96020.63
2022-09-03T12:28:37.675Z,96027.09
2022-09-03T12:31:23.552Z,96019.16
2022-09-03T12:34:00.346Z,96028.25
2022-09-03T12:36:37.782Z,96031.09
2022-09-03T12:42:22.496Z,96028.25
2022-09-03T12:44:49.836Z,96027.16
2022-09-03T12:47:38.158Z,96027.47
2022-09-03T12:50:11.243Z,96030.41
2022-09-03T12:52:54.312Z,96027.22
2022-09-03T12:55:42.512Z,96025.06
2022-09-03T12:58:18.099Z,96019.69
2022-09-03T13:00:50.024Z,96029.91
2022-09-03T13:03:26.475Z,96021.94
2022-09-03T13:05:59.537Z,96019.66
2022-09-03T13:08:39.054Z,96025.00
2022-09-03T13:11:06.121Z,96017.47
2022-09-03T13:13:37.169Z,96020.47
2022-09-03T13:16:19.144Z,96025.50
2022-09-03T13:18:51.395Z,96025.25
2022-09-03T13:21:34.322Z,96022.56
2022-09-03T13:24:19.904Z,96019.66
2022-09-03T13:27:29.021Z,96011.22
2022-09-03T13:30:04.845Z,96017.41
2022-09-03T13:33:00.921Z,96021.75
2022-09-03T13:35:42.621Z,96018.81
2022-09-03T13:38:18.316Z,96016.22
2022-09-03T13:41:06.821Z,96014.91
2022-09-03T13:43:33.625Z,96016.72
2022-09-03T13:46:05.577Z,96009.75
2022-09-03T13:49:01.702Z,96011.41
2022-09-03T13:51:40.029Z,96017.97
2022-09-03T13:54:09.954Z,96007.88
2022-09-03T13:56:56.326Z,96011.91
2022-09-03T14:00:10.414Z,96011.41
2022-09-03T14:02:46.627Z,96012.75
2022-09-03T14:05:26.591Z,96019.19
2022-09-03T14:07:58.967Z,96007.94
2022-09-03T14:10:35.194Z,96011.72
2022-09-03T14:13:07.553Z,96010.75
2022-09-03T14:15:45.554Z,96014.53
2022-09-03T14:19:03.514Z,96011.63
2022-09-03T14:21:45.237Z,96014.16
2022-09-03T14:24:11.781Z,96009.31
2022-09-03T14:26:51.380Z,96011.78
2022-09-03T14:29:20.910Z,96022.28
2022-09-03T14:32:05.778Z,96013.97
2022-09-03T14:34:52.304Z,96013.38
2022-09-03T14:37:49.109Z,96010.13
2022-09-03T14:40:27.698Z,96004.47
2022-09-03T14:43:31.951Z,96002.88
2022-09-03T14:46:18.202Z,96008.88
2022-09-03T14:49:21.981Z,96010.28
2022-09-03T14:52:05.842Z,96009.28
2022-09-03T14:54:41.491Z,96016.03
2022-09-03T14:57:17.057Z,96009.94
2022-09-03T15:00:19.799Z,96012.13
2022-09-03T15:03:08.858Z,96008.66
2022-09-03T15:06:03.144Z,96005.97
2022-09-03T15:08:50.820Z,96002.25
2022-09-03T15:11:24.166Z,96009.63
2022-09-03T15:14:28.971Z,96012.22
2022-09-03T15:17:01.509Z,96015.63
2022-09-03T15:19:46.280Z,96020.38
2022-09-03T15:22:30.886Z,96026.44
2022-09-03T15:25:16.080Z,96024.44
2022-09-03T15:28:14.855Z,96017.91
2022-09-03T15:30:47.945Z,96023.56
2022-09-03T15:33:37.085Z,96024.09
2022-09-03T15:36:12.692Z,96018.41
2022-09-03T15:39:00.691Z,96007.50
2022-09-03T15:41:45.313Z,96013.69
2022-09-03T15:44:19.666Z,96007.81
2022-09-03T15:47:13.820Z,96011.38
2022-09-03T15:50:01.982Z,96011.91
2022-09-03T15:52:28.484Z,96007.00
2022-09-03T15:55:31.984Z,96017.91
2022-09-03T15:58:09.906Z,96007.19
2022-09-03T16:01:00.103Z,96005.25
2022-09-03T16:03:35.899Z,96008.69
2022-09-03T16:06:07.239Z,96019.91
2022-09-03T16:08:50.521Z,96020.72
2022-09-03T16:11:21.589Z,96006.13
2022-09-03T16:14:01.700Z,96011.34
2022-09-03T16:17:01.222Z,96011.28
2022-09-03T16:19:48.694Z,96013.97
2022-09-03T16:22:55.628Z,96008.47
2022-09-03T16:25:44.358Z,96009.97
2022-09-03T16:28:17.287Z,96011.75
2022-09-03T16:30:59.706Z,96010.13
2022-09-03T16:33:44.988Z,96014.66
2022-09-03T16:36:11.549Z,96012.88
2022-09-03T16:38:54.839Z,96016.44
2022-09-03T16:41:44.133Z,96019.94
2022-09-03T16:44:32.648Z,96016.94
2022-09-03T16:47:02.361Z,96020.09
2022-09-03T16:49:46.602Z,96026.38
2022-09-03T16:52:39.008Z,96018.75
2022-09-03T16:55:44.032Z,96020.69
2022-09-03T16:58:27.629Z,96016.81
2022-09-03T17:01:12.430Z,96022.31
2022-09-03T17:04:36.758Z,96018.91
2022-09-03T17:07:25.106Z,96024.91
2022-09-03T17:09:56.067Z,96021.00
2022-09-03T17:12:30.991Z,96024.88
2022-09-03T17:15:36.038Z,96028.53
2022-09-03T17:18:14.244Z,96036.69
2022-09-03T17:20:49.466Z,96041.63
2022-09-03T17:23:31.148Z,96037.47
2022-09-03T17:26:22.322Z,96034.69
2022-09-03T17:28:58.869Z,96027.03
2022-09-03T17:31:39.262Z,96044.22
2022-09-03T17:34:43.975Z,96035.22
2022-09-03T17:37:31.868Z,96046.84
2022-09-03T17:40:19.807Z,96039.69
2022-09-03T17:42:55.231Z,96049.22
2022-09-03T17:45:34.154Z,96043.66
2022-09-03T17:48:16.971Z,96050.75
2022-09-03T17:51:04.218Z,96054.34
2022-09-03T17:53:44.062Z,96069.78
2022-09-03T17:56:29.362Z,96074.19
2022-09-03T17:59:10.728Z,96069.91
2022-09-03T18:01:48.230Z,96075.38
2022-09-03T18:04:39.254Z,96074.69
2022-09-03T18:07:05.748Z,96070.59
2022-09-03T18:09:56.118Z,96080.91
2022-09-03T18:12:43.823Z,96089.28
2022-09-03T18:15:28.096Z,96089.75
2022-09-03T18:18:27.441Z,96088.34
2022-09-03T18:21:25.252Z,96093.06
2022-09-03T18:24:51.163Z,96091.13
2022-09-03T18:27:46.009Z,96090.50
2022-09-03T18:30:33.901Z,96086.22
2022-09-03T18:33:19.415Z,96093.97
2022-09-03T18:36:05.938Z,96097.34
2022-09-03T18:38:54.200Z,96095.59
2022-09-03T18:41:59.706Z,96092.44
2022-09-03T18:45:19.815Z,96111.19
2022-09-03T18:48:29.065Z,96104.78
2022-09-03T18:51:42.049Z,96111.28
2022-09-03T18:55:06.242Z,96099.88
2022-09-03T18:58:38.249Z,96109.59
2022-09-03T19:01:51.433Z,96111.75
2022-09-03T19:05:12.892Z,96108.13
2022-09-03T19:08:35.704Z,96111.13
2022-09-03T19:11:46.428Z,96111.88
2022-09-03T19:14:53.794Z,96118.69
2022-09-03T19:17:55.409Z,96108.13
2022-09-03T19:20:48.923Z,96115.75
2022-09-03T19:23:33.972Z,96117.56
2022-09-03T19:26:31.230Z,96118.63
2022-09-03T19:29:22.562Z,96115.22
2022-09-03T19:32:19.720Z,96116.13
2022-09-03T19:35:13.939Z,96114.72
2022-09-03T19:38:17.891Z,96109.66
2022-09-03T19:41:29.448Z,96114.22
2022-09-03T19:44:36.683Z,96121.69
2022-09-03T19:47:23.553Z,96119.91
2022-09-03T19:50:18.607Z,96122.41
2022-09-03T19:53:11.786Z,96123.88
2022-09-03T19:56:07.584Z,96134.22
2022-09-03T19:58:57.065Z,96128.81
2022-09-03T20:01:44.189Z,96131.09
2022-09-03T20:04:34.026Z,96130.16
2022-09-03T20:07:23.692Z,96137.38
2022-09-03T20:10:09.974Z,96141.91
2022-09-03T20:12:40.372Z,96136.22
2022-09-03T20:15:08.929Z,96137.09
2022-09-03T20:17:46.714Z,96142.22
2022-09-03T20:20:32.453Z,96141.03
2022-09-03T20:23:12.957Z,96141.66
2022-09-03T20:25:48.506Z,96147.00
2022-09-03T20:29:04.574Z,96138.50
2022-09-03T20:32:03.022Z,96145.47
2022-09-03T20:34:53.994Z,96142.81
2022-09-03T20:37:44.406Z,96148.75
2022-09-03T20:40:45.483Z,96154.06
2022-09-03T20:43:11.974Z,96152.06
2022-09-03T20:45:57.177Z,96152.25
2022-09-03T20:48:38.553Z,96161.06
2022-09-03T20:51:13.113Z,96154.56
2022-09-03T20:53:49.220Z,96151.31
2022-09-03T20:56:39.735Z,96149.28
2022-09-03T20:59:14.104Z,96150.09
2022-09-03T21:01:52.372Z,96138.66
2022-09-03T21:04:41.476Z,96140.97
2022-09-03T21:07:14.044Z,96144.03
2022-09-03T21:09:56.739Z,96148.13
2022-09-03T21:12:42.031Z,96149.78
2022-09-03T21:15:20.695Z,96138.34
2022-09-03T21:17:56.777Z,96153.47
2022-09-03T21:20:32.306Z,96158.59
2022-09-03T21:23:01.706Z,96161.66
2022-09-03T21:25:42.277Z,96159.22
2022-09-03T21:28:40.427Z,96163.69
2022-09-03T21:31:22.375Z,96156.16
2022-09-03T21:33:55.801Z,96159.06
2022-09-03T21:36:33.902Z,96156.22
2022-09-03T21:39:13.035Z,96160.09
2022-09-03T21:41:40.425Z,96145.81
2022-09-03T21:44:11.782Z,96153.56
2022-09-03T21:46:47.300Z,96153.56
2022-09-03T21:49:21.177Z,96161.31
2022-09-03T21:52:06.327Z,96150.72
2022-09-03T21:54:34.630Z,96158.91
2022-09-03T21:57:22.111Z,96154.38
2022-09-03T22:00:09.225Z,96149.09
2022-09-03T22:02:36.715Z,96162.13
2022-09-03T22:05:04.439Z,96157.25
2022-09-03T22:07:46.118Z,96162.75
2022-09-03T22:10:37.890Z,96162.97
2022-09-03T22:13:36.750Z,96167.44
2022-09-03T22:16:14.999Z,96167.59
2022-09-03T22:18:41.535Z,96170.84
2022-09-03T22:21:28.148Z,96168.19
2022-09-03T22:24:23.339Z,96166.34
2022-09-03T22:27:12.217Z,96165.75
2022-09-03T22:30:05.009Z,96163.66
2022-09-03T22:32:53.412Z,96162.88
2022-09-03T22:35:23.032Z,96175.09
2022-09-03T22:38:10.956Z,96179.16
2022-09-03T22:41:00.388Z,96168.16
2022-09-03T22:43:38.664Z,96173.41
2022-09-03T22:46:14.545Z,96169.97
2022-09-03T22:48:50.191Z,96170.72
2022-09-03T22:51:21.599Z,96164.81
2022-09-03T22:54:21.178Z,96163.59
2022-09-03T22:56:48.594Z,96168.28
2022-09-03T22:59:46.046Z,96172.13
2022-09-03T23:02:21.987Z,96163.38
2022-09-03T23:04:57.963Z,96165.63
2022-09-03T23:07:48.188Z,96163.19
2022-09-03T23:10:25.591Z,96167.03
2022-09-03T23:13:14.406Z,96167.25
2022-09-03T23:15:42.442Z,96165.41
2022-09-03T23:18:21.449Z,96166.00
2022-09-03T23:21:07.168Z,96164.38
2022-09-03T23:23:38.934Z,96157.47
2022-09-03T23:26:14.136Z,96158.88
2022-09-03T23:28:47.257Z,96166.59
2022-09-03T23:31:13.934Z,96164.13
2022-09-03T23:33:40.511Z,96163.09
2022-09-03T23:36:43.349Z,96166.78
2022-09-03T23:39:43.625Z,96165.31
2022-09-03T23:42:25.078Z,96174.06
2022-09-03T23:45:02.894Z,96169.94
2022-09-03T23:47:47.637Z,96177.72
2022-09-03T23:50:25.361Z,96173.22
2022-09-03T23:53:10.122Z,96174.69
2022-09-03T23:56:01.536Z,96172.03
2022-09-03T23:58:52.518Z,96171.41
